Adam Wilson

Scout - West Bromwich Albion
24 Feb 2029
Samstag
Verarbeitung

Persönlichkeit

Anpassungsfähigkeit (17) Ehrgeiz (13) Kontroverse (17) Loyalität (15) Druck (11) Professionalität (12) Fairness (6) Temperament (1)

Profil

Trainerstil Demokratisch
Lizenz Kontinentale C
Entschlossenheit 7
Menschenführung 8
Motivation 13
Disziplin 10
Arbeitszufriedenheit
100%
Ermüdung
0%
Rolle Scout
Gehalt 43.0K p/W
Vertrag 14.03.2030

Leistung

Verhalten Gut
Trainingseffektivität
39%
Spielerentwicklung
30%
Verletzungsprävention
60%
Taktische Umsetzung
45%

Letzte Ereignisse

Nahm an einer Scouting-Besprechung teil 14T her
Nahm an einer Scouting-Besprechung teil 21T her
Nahm an einer Scouting-Besprechung teil 28T her
Nimmt an Fortbildung teil 35T her
Nimmt an Fortbildung teil 35T her
Nimmt an Fortbildung teil 35T her
Nimmt an Fortbildung teil 35T her
Nimmt an Fortbildung teil 35T her

Aktuell beobachtet

100
Spieler Verein Status Fähigkeit Vertrauen Beobachtet Zuletzt beobachtet Letzte Stimme
Vitaly Bondarev Ural Aktiv 112 / 108 40% 1 09.01.2029 -
Celías Ingenthron Platense Aktiv 120 / 132 40% 1 31.12.2028 -
Robinio Vaz Modena Aktiv 122 / 130 40% 1 31.12.2028 -
Nadir Sánchez Central Córdoba SdE Aktiv 83 / 98 40% 1 29.08.2028 -
Mateo Faure BATE Aktiv 84 / 101 40% 1 29.08.2028 -
Ossama Ashley Salford City Aktiv 107 / 115 51% 1 28.08.2028 -
Nupe Godstime Bayelsa United Aktiv 92 / 100 40% 1 21.08.2028 -
Giovanni Cantizano Fulham Aktiv 136 / 128 40% 5 01.08.2028 -
Andrea Luongo Trento Aktiv 111 / 115 40% 1 01.08.2028 -
Ryan McAidoo Oldham Athletic Aktiv 126 / 124 40% 3 24.07.2028 -
Jamal Iddrissou Pergolettese Aktiv 113 / 123 40% 2 24.07.2028 -
Reyes Cleary Bromley Aktiv 115 / 129 51% 1 03.07.2028 -
Rahul Sharma Pontedera Aktiv 81 / 96 40% 1 19.06.2028 -
Henrique Carmo Sochi Aktiv 128 / 140 40% 1 14.06.2028 -
Alphadjo Cissé Lecce Aktiv 123 / 135 40% 2 31.05.2028 -
Fletcher Boyd Accrington Stanley Aktiv 100 / 118 40% 2 31.05.2028 -
Luca Williams-Barnett Walsall Aktiv 113 / 137 40% 3 29.05.2028 -
Edison Gruezo Guadalajara Aktiv 87 / 103 40% 1 29.05.2028 -
André Miranda Porto Aktiv 110 / 121 40% 1 27.05.2028 -
Gabriel Mec Feirense Aktiv 138 / 139 40% 1 22.05.2028 -
Kerim Alajbegović Modena Aktiv 125 / 145 40% 2 21.05.2028 -
Romelle Donovan Brentford Aktiv 140 / 142 40% 2 21.05.2028 -
Shea Lacey Crystal Palace Aktiv 133 / 136 40% 2 20.05.2028 -
Leo Pecover Swindon Town Aktiv 106 / 116 40% 2 18.05.2028 -
Omar Khedr Gillingham Aktiv 112 / 110 40% 1 15.05.2028 -
Sindre Walle Egeli Udinese Aktiv 135 / 144 40% 5 14.05.2028 -
Vincenzo Damiano Atalanta Aktiv 110 / 119 40% 1 12.05.2028 -
Oskar Pietuszewski Estrela da Amadora Aktiv 144 / 137 40% 3 10.05.2028 -
Oscar Schwartau Norwich City Aktiv 130 / 123 40% 4 08.05.2028 -
İsak Vural Audace Cerignola Aktiv 110 / 117 40% 2 06.05.2028 -
Giovanni Leoni Lincoln City Aktiv 128 / 140 40% 1 01.05.2028 -
Bernardo Lima Porto Aktiv 104 / 120 40% 1 27.04.2028 -
Peter Amidu Acquah Asante Kotoko Aktiv 110 / 104 40% 2 23.04.2028 -
Amin Nabizada Exeter City Aktiv 98 / 126 40% 1 23.04.2028 -
Jake Evans Crewe Alexandra Aktiv 111 / 132 40% 1 22.04.2028 -
Mateus Mané Burnley Aktiv 134 / 144 40% 1 17.04.2028 -
Andrea Bertoncini Triestina Aktiv 91 / 106 40% 1 10.04.2028 -
Ayden Heaven Portsmouth Aktiv 157 / 158 40% 1 10.04.2028 -
Ronan Kpakio AC Milan Aktiv 118 / 132 40% 1 07.04.2028 -
Martim Cunha Porto Aktiv 97 / 111 40% 4 05.04.2028 -
Musa Danjuma Umraniyespor Aktiv 86 / 98 40% 1 04.04.2028 -
Gideon Manaseh Ikorodu City Aktiv 100 / 106 40% 1 01.04.2028 -
Jan Bürger Northampton Town Aktiv 120 / 125 40% 1 24.03.2028 -
Olivier Leroux Mouscron Aktiv 104 / 103 40% 1 23.03.2028 -
Amine Boukamir Charleroi Aktiv 104 / 102 40% 1 21.03.2028 -
Andrey Ivlev Nizhniy Novgorod Aktiv 124 / 115 40% 1 19.03.2028 -
Joel Ezra Enyimba Aktiv 91 / 102 40% 1 17.03.2028 -
Riquelme Thompson-Jones Accrington Stanley Aktiv 100 / 114 40% 1 17.03.2028 -
Aidan Morris Middlesbrough Aktiv 125 / 132 40% 2 26.05.2027 -
Welington Southampton Aktiv 125 / 135 40% 3 26.05.2027 -
Florentino Luís Ipswich Town Aktiv 148 / 136 40% 2 22.05.2027 -
Brooke Norton-Cuffy Hull City Aktiv 146 / 132 40% 1 21.05.2027 -
Jacob Greaves Ipswich Town Aktiv 154 / 144 40% 4 17.05.2027 -
Derry Murkin Derby County Aktiv 113 / 132 40% 1 17.05.2027 -
Habib Diarra Sunderland Aktiv 144 / 138 40% 2 15.05.2027 -
Lewis Ferguson Bologna Aktiv 142 / 148 40% 1 14.05.2027 -
Nicolas Madsen Queens Park Rangers Aktiv 144 / 128 40% 2 08.05.2027 -
Oliver Skipp Leicester City Aktiv 116 / 130 40% 1 08.05.2027 -
André Wolverhampton Aktiv 148 / 153 40% 3 07.05.2027 -
Ronnie Edwards Queens Park Rangers Aktiv 129 / 136 40% 1 06.05.2027 -
Michael Baidoo Plymouth Argyle Aktiv 120 / 132 40% 1 27.04.2027 -
Jonathan Varane Queens Park Rangers Aktiv 113 / 119 40% 2 23.04.2027 -
Ryan Sessegnon Fulham Aktiv 148 / 139 40% 3 18.04.2027 -
Pelle Mattsson Norwich City Aktiv 117 / 118 40% 1 18.04.2027 -
Max Johnston Derby County Aktiv 116 / 120 40% 2 11.04.2027 -
Lucas Da Cunha Como Aktiv 143 / 141 40% 2 03.04.2027 -
Jacques Ekomié Wrexham Aktiv 134 / 134 40% 2 17.03.2027 -
Lewis Gibson Preston Aktiv 141 / 121 40% 1 16.03.2027 -
Romano Floriani Mussolini Blackpool Aktiv 114 / 120 40% 1 11.03.2027 -
Dennis Cirkin Queens Park Rangers Aktiv 114 / 122 40% 1 10.03.2027 -
Yehor Yarmoliuk Brentford Aktiv 149 / 152 40% 3 07.03.2027 -
Petar Stanić Ludogorets Aktiv 142 / 141 40% 3 28.12.2026 -
Talles Magno New York City Aktiv 120 / 138 40% 2 19.12.2026 -
Marcel Ruiz Crystal Palace Aktiv 138 / 140 40% 1 14.12.2026 -
Bradley Zwane SuperSport United Aktiv 111 / 105 40% 3 13.12.2026 -
Isaac Inusah Wa All Stars Aktiv 120 / 122 40% 1 06.12.2026 -
Yeremy Pino Crystal Palace Aktiv 139 / 157 40% 1 01.12.2026 -
Kevin Fulham Aktiv 149 / 152 40% 2 27.11.2026 -
Chemsdine Talbi Sunderland Aktiv 155 / 149 40% 1 26.11.2026 -
Óscar Mingueza Crystal Palace Aktiv 152 / 153 40% 1 26.11.2026 -
David Kyereh WAFA Aktiv 97 / 87 40% 1 25.11.2026 -
Tadeo Allende Inter Miami CF Aktiv 134 / 117 40% 1 25.11.2026 -
Louis Leroux FC Nantes Aktiv 127 / 120 40% 1 20.11.2026 -
Sergi Domínguez Dinamo Zagreb Aktiv 129 / 118 40% 1 17.11.2026 -
Martín Ojeda Orlando City Aktiv 155 / 120 40% 1 12.11.2026 -
Mikkel Damsgaard Brentford Aktiv 158 / 151 40% 1 11.11.2026 -
Callum Hudson-Odoi Nottingham Forest Aktiv 137 / 158 40% 1 06.11.2026 -
Marco Pašalić Orlando City Aktiv 134 / 119 40% 2 04.11.2026 -
Jadon Sancho Manchester United Aktiv 142 / 141 40% 1 04.11.2026 -
Marcus Edwards Burnley Aktiv 139 / 137 40% 1 28.10.2026 -
Oswin Appollis Orlando Pirates Aktiv 128 / 106 40% 1 26.10.2026 -
Olalekan Adeleke Remo Stars Aktiv 78 / 93 40% 1 23.10.2026 -
Josh Torquato FC Dallas Aktiv 104 / 96 40% 1 20.10.2026 -
Jesus Ferreira Seattle Sounders Aktiv 111 / 123 40% 1 15.10.2026 -
Cemran Dansin Orlando Pirates Aktiv 131 / 117 40% 1 13.10.2026 -
Quinten Timber Crystal Palace Aktiv 137 / 147 40% 1 10.10.2026 -
Joaquín Pereyra Minnesota United FC Aktiv 122 / 115 40% 1 09.10.2026 -
Amin Boudri Los Angeles Football Club Aktiv 101 / 121 40% 1 09.10.2026 -
Mason Mount Manchester United Aktiv 162 / 149 40% 1 08.10.2026 -
Mbekezeli Mbokazi Chicago Fire Aktiv 106 / 121 40% 1 08.10.2026 -